Lakewood, Ohio
Current Conditions -  °F | °C
As of 3:53 PM on Thursday 20 Nov 2014 (Local Time) from KBKL Reporting Station
Overcast Overcast  
Wind Chill: 10°   Ceiling: 5500
Heat Index: 26°   Visibility: 10mi
Dew Point: 13°   Wind: 29mph
Humidity: 58%   Direction: 230°SW
Pressure: 30"   Gusts: 37mph
Location:  41.48°N, 81.78°W
Report Text: KBKL 202053Z 23025G32KT 10SM FEW040 OVC055 M03/M11 A3000 RMK AO2 PK WND 24032/2048 SLP167 T10331106 53011
Loading
Personal Weather Stations






























Interactive Weather Map New forecast layout! Learn more

10-Day Weather Forecast

Advertisements
Track Severe Weather on mobile